Alvada, Ohio
Current Conditions -  °F | °C
As of 1:53 AM on Monday 22 Dec 2014 (Local Time) from KFDY Reporting Station
Haze Haze  
Wind Chill: 20°   Ceiling: Unl
Heat Index: 27°   Visibility: 6mi
Dew Point: 21°   Wind: 6mph
Humidity: 78%   Direction: 100°E
Pressure: 30.11"   Gusts: NA
Location:  41.05°N, 83.4°W
Report Text: KFDY 220653Z AUTO 10005KT 6SM HZ CLR M03/M06 A3011 RMK AO2 SLP201 T10281061
Loading
Personal Weather Stations






























Interactive Weather Map New forecast layout! Learn more

10-Day Weather Forecast

Advertisements
Track Severe Weather on mobile